createdAt,value
2018-07-08T00:00:24.388Z,9.27
2018-07-08T00:01:24.409Z,9.26
2018-07-08T00:02:24.400Z,9.25
2018-07-08T00:03:24.438Z,9.28
2018-07-08T00:04:24.452Z,9.25
2018-07-08T00:05:24.406Z,9.29
2018-07-08T00:06:24.405Z,9.27
2018-07-08T00:07:24.493Z,9.26
2018-07-08T00:08:24.380Z,9.25
2018-07-08T00:09:24.521Z,9.26
2018-07-08T00:10:24.456Z,9.21
2018-07-08T00:11:24.433Z,9.27
2018-07-08T00:12:24.369Z,9.27
2018-07-08T00:13:24.428Z,9.24
2018-07-08T00:14:24.373Z,9.27
2018-07-08T00:15:24.391Z,9.24
2018-07-08T00:16:24.487Z,9.22
2018-07-08T00:17:24.359Z,9.29
2018-07-08T00:18:24.401Z,9.32
2018-07-08T00:19:24.356Z,9.28
2018-07-08T00:20:24.485Z,9.32
2018-07-08T00:21:24.594Z,9.31
2018-07-08T00:22:24.350Z,9.36
2018-07-08T00:23:24.331Z,9.36
2018-07-08T00:24:24.432Z,9.41
2018-07-08T00:25:24.458Z,9.4
2018-07-08T00:26:24.392Z,9.39
2018-07-08T00:27:24.443Z,9.31
2018-07-08T00:28:24.370Z,9.39
2018-07-08T00:29:24.549Z,9.41
2018-07-08T00:30:24.387Z,9.35
2018-07-08T00:31:24.384Z,9.42
2018-07-08T00:32:24.353Z,9.38
2018-07-08T00:33:24.386Z,9.36
2018-07-08T00:34:24.427Z,9.33
2018-07-08T00:35:24.375Z,9.4
2018-07-08T00:36:24.383Z,9.38
2018-07-08T00:37:24.378Z,9.36
2018-07-08T00:38:24.366Z,9.34
2018-07-08T00:39:24.392Z,9.4
2018-07-08T00:40:24.429Z,9.39
2018-07-08T00:41:24.405Z,9.38
2018-07-08T00:42:24.364Z,9.36
2018-07-08T00:43:24.342Z,9.37
2018-07-08T00:44:24.384Z,9.37
2018-07-08T00:45:24.357Z,9.33
2018-07-08T00:46:24.370Z,9.36
2018-07-08T00:47:24.389Z,9.39
2018-07-08T00:48:24.389Z,9.42
2018-07-08T00:49:24.382Z,9.42
2018-07-08T00:50:24.359Z,9.48
2018-07-08T00:51:24.456Z,9.47
2018-07-08T00:52:24.371Z,9.41
2018-07-08T00:53:24.357Z,9.46
2018-07-08T00:54:24.353Z,9.42
2018-07-08T00:55:24.360Z,9.39
2018-07-08T00:56:24.351Z,9.36
2018-07-08T00:57:24.463Z,9.41
2018-07-08T00:58:24.371Z,9.41
2018-07-08T00:59:24.376Z,9.43
2018-07-08T01:00:24.542Z,9.4
2018-07-08T01:01:25.147Z,9.43
2018-07-08T01:02:24.521Z,9.42
2018-07-08T01:03:24.349Z,9.46
2018-07-08T01:04:24.352Z,9.37
2018-07-08T01:05:24.416Z,9.39
2018-07-08T01:06:24.377Z,9.34
2018-07-08T01:07:24.577Z,9.36
2018-07-08T01:08:24.360Z,9.34
2018-07-08T01:09:24.394Z,9.4
2018-07-08T01:10:24.360Z,9.45
2018-07-08T01:11:24.414Z,9.39
2018-07-08T01:12:24.358Z,9.47
2018-07-08T01:13:24.476Z,9.4
2018-07-08T01:14:24.332Z,9.34
2018-07-08T01:15:24.383Z,9.47
2018-07-08T01:16:24.383Z,9.41
2018-07-08T01:17:24.403Z,9.42
2018-07-08T01:18:24.382Z,9.44
2018-07-08T01:19:24.356Z,9.42
2018-07-08T01:20:24.325Z,9.46
2018-07-08T01:21:24.369Z,9.4
2018-07-08T01:22:24.368Z,9.41
2018-07-08T01:23:24.336Z,9.41
2018-07-08T01:24:24.338Z,9.41
2018-07-08T01:25:24.550Z,9.41
2018-07-08T01:26:24.398Z,9.43
2018-07-08T01:27:24.453Z,9.38
2018-07-08T01:28:24.376Z,9.4
2018-07-08T01:29:24.386Z,9.38
2018-07-08T01:30:24.437Z,9.44
2018-07-08T01:31:24.417Z,9.39
2018-07-08T01:32:24.339Z,9.42
2018-07-08T01:33:24.698Z,9.43
2018-07-08T01:34:24.358Z,9.38
2018-07-08T01:35:24.535Z,9.36
2018-07-08T01:36:24.333Z,9.39
2018-07-08T01:37:24.343Z,9.36
2018-07-08T01:38:24.548Z,9.43
2018-07-08T01:39:24.361Z,9.41
2018-07-08T01:40:24.366Z,9.45
2018-07-08T01:41:24.406Z,9.41
2018-07-08T01:42:24.369Z,9.42
2018-07-08T01:43:24.329Z,9.35
2018-07-08T01:44:24.954Z,9.33
2018-07-08T01:45:24.343Z,9.35
2018-07-08T01:46:24.334Z,9.37
2018-07-08T01:47:24.370Z,9.38
2018-07-08T01:48:24.361Z,9.42
2018-07-08T01:49:24.347Z,9.43
2018-07-08T01:50:24.378Z,9.41
2018-07-08T01:51:24.329Z,9.44
2018-07-08T01:52:24.356Z,9.38
2018-07-08T01:53:24.547Z,9.42
2018-07-08T01:54:24.346Z,9.39
2018-07-08T01:55:24.346Z,9.35
2018-07-08T01:56:24.340Z,9.41
2018-07-08T01:57:24.337Z,9.43
2018-07-08T01:58:24.346Z,9.39
2018-07-08T01:59:24.366Z,9.46
2018-07-08T02:00:24.359Z,9.48
2018-07-08T02:01:24.391Z,9.44
2018-07-08T02:02:24.330Z,9.49
2018-07-08T02:03:24.377Z,9.5
2018-07-08T02:04:24.436Z,9.46
2018-07-08T02:05:24.364Z,9.46
2018-07-08T02:06:24.340Z,9.45
2018-07-08T02:07:24.377Z,9.5
2018-07-08T02:08:24.340Z,9.5
2018-07-08T02:09:24.371Z,9.49
2018-07-08T02:10:24.389Z,9.46
2018-07-08T02:11:24.632Z,9.46
2018-07-08T02:12:24.760Z,9.48
2018-07-08T02:13:24.330Z,9.36
2018-07-08T02:14:24.323Z,9.5
2018-07-08T02:15:24.382Z,9.46
2018-07-08T02:16:24.341Z,9.49
2018-07-08T02:17:24.620Z,9.4
2018-07-08T02:18:24.360Z,9.46
2018-07-08T02:19:24.346Z,9.48
2018-07-08T02:20:24.373Z,9.42
2018-07-08T02:21:24.421Z,9.45
2018-07-08T02:22:24.346Z,9.43
2018-07-08T02:23:24.329Z,9.42
2018-07-08T02:24:24.376Z,9.44
2018-07-08T02:25:24.608Z,9.4
2018-07-08T02:26:24.564Z,9.42
2018-07-08T02:27:24.340Z,9.43
2018-07-08T02:28:24.682Z,9.35
2018-07-08T02:29:24.369Z,9.37
2018-07-08T02:30:24.463Z,9.46
2018-07-08T02:31:24.371Z,9.44
2018-07-08T02:32:24.403Z,9.46
2018-07-08T02:33:24.352Z,9.42
2018-07-08T02:34:24.450Z,9.45
2018-07-08T02:35:24.344Z,9.49
2018-07-08T02:36:24.361Z,9.43
2018-07-08T02:37:24.345Z,9.51
2018-07-08T02:38:24.411Z,9.49
2018-07-08T02:39:24.317Z,9.43
2018-07-08T02:40:24.332Z,9.45
2018-07-08T02:41:24.385Z,9.45
2018-07-08T02:42:24.332Z,9.4
2018-07-08T02:43:24.394Z,9.43
2018-07-08T02:44:24.351Z,9.49
2018-07-08T02:45:24.415Z,9.46
2018-07-08T02:46:24.358Z,9.51
2018-07-08T02:47:24.328Z,9.48
2018-07-08T02:48:24.315Z,9.45
2018-07-08T02:49:24.348Z,9.48
2018-07-08T02:50:24.379Z,9.46
2018-07-08T02:51:24.353Z,9.48
2018-07-08T02:52:24.455Z,9.46
2018-07-08T02:53:26.620Z,9.47
2018-07-08T02:54:24.329Z,9.53
2018-07-08T02:55:24.381Z,9.5
2018-07-08T02:56:24.655Z,9.5
2018-07-08T02:57:24.313Z,9.51
2018-07-08T02:58:24.323Z,9.47
2018-07-08T02:59:24.323Z,9.5
2018-07-08T03:00:24.330Z,9.5
2018-07-08T03:01:24.331Z,9.5
2018-07-08T03:02:24.334Z,9.48
2018-07-08T03:03:24.305Z,9.48
2018-07-08T03:04:24.382Z,9.46
2018-07-08T03:05:24.360Z,9.47
2018-07-08T03:06:24.345Z,9.49
2018-07-08T03:07:24.338Z,9.46
2018-07-08T03:08:24.305Z,9.52
2018-07-08T03:09:24.360Z,9.52
2018-07-08T03:10:24.382Z,9.48
2018-07-08T03:11:24.329Z,9.52
2018-07-08T03:12:24.363Z,9.42
2018-07-08T03:13:24.364Z,9.51
2018-07-08T03:14:24.323Z,9.51
2018-07-08T03:15:24.315Z,9.45
2018-07-08T03:16:24.342Z,9.4
2018-07-08T03:17:24.384Z,9.35
2018-07-08T03:18:24.313Z,9.48
2018-07-08T03:19:24.331Z,9.42
2018-07-08T03:20:24.329Z,9.42
2018-07-08T03:21:24.331Z,9.41
2018-07-08T03:22:24.293Z,9.51
2018-07-08T03:23:24.392Z,9.5
2018-07-08T03:24:24.412Z,9.48
2018-07-08T03:25:24.316Z,9.51
2018-07-08T03:26:24.369Z,9.42
2018-07-08T03:27:24.334Z,9.46
2018-07-08T03:28:24.338Z,9.48
2018-07-08T03:29:24.650Z,9.51
2018-07-08T03:30:24.368Z,9.48
2018-07-08T03:31:24.380Z,9.47
2018-07-08T03:32:24.349Z,9.4
2018-07-08T03:33:24.731Z,9.45
2018-07-08T03:34:24.351Z,9.48
2018-07-08T03:35:24.321Z,9.41
2018-07-08T03:36:24.328Z,9.48
2018-07-08T03:37:24.334Z,9.39
2018-07-08T03:38:24.340Z,9.39
2018-07-08T03:39:24.349Z,9.39
2018-07-08T03:40:24.595Z,9.39
2018-07-08T03:41:24.346Z,9.44
2018-07-08T03:42:24.347Z,9.5
2018-07-08T03:43:24.354Z,9.52
2018-07-08T03:44:24.420Z,9.49
2018-07-08T03:45:24.495Z,9.49
2018-07-08T03:46:24.343Z,9.5
2018-07-08T03:47:24.402Z,9.51
2018-07-08T03:48:24.350Z,9.53
2018-07-08T03:49:24.341Z,9.52
2018-07-08T03:50:24.394Z,9.5
2018-07-08T03:51:24.373Z,9.49
2018-07-08T03:52:24.362Z,9.5
2018-07-08T03:53:24.327Z,9.53
2018-07-08T03:54:24.371Z,9.53
2018-07-08T03:55:24.328Z,9.54
2018-07-08T03:56:24.366Z,9.49
2018-07-08T03:57:24.405Z,9.46
2018-07-08T03:58:24.321Z,9.56
2018-07-08T03:59:24.363Z,9.5
2018-07-08T04:00:24.333Z,9.52
2018-07-08T04:01:24.374Z,9.51
2018-07-08T04:02:24.302Z,9.48
2018-07-08T04:03:24.447Z,9.39
2018-07-08T04:04:24.310Z,9.46
2018-07-08T04:05:24.296Z,9.54
2018-07-08T04:06:24.468Z,9.49
2018-07-08T04:07:24.364Z,9.48
2018-07-08T04:08:24.335Z,9.49
2018-07-08T04:09:24.363Z,9.51
2018-07-08T04:10:24.300Z,9.49
2018-07-08T04:11:24.370Z,9.47
2018-07-08T04:12:24.351Z,9.48
2018-07-08T04:13:24.353Z,9.54
2018-07-08T04:14:24.369Z,9.47
2018-07-08T04:15:24.334Z,9.53
2018-07-08T04:16:24.302Z,9.55
2018-07-08T04:17:24.338Z,9.49
2018-07-08T04:18:24.314Z,9.48
2018-07-08T04:19:24.328Z,9.55
2018-07-08T04:20:24.292Z,9.51
2018-07-08T04:21:24.324Z,9.58
2018-07-08T04:22:24.353Z,9.58
2018-07-08T04:23:24.295Z,9.5
2018-07-08T04:24:24.329Z,9.53
2018-07-08T04:25:24.384Z,9.63
2018-07-08T04:26:24.333Z,9.59
2018-07-08T04:27:24.305Z,9.57
2018-07-08T04:28:24.331Z,9.57
2018-07-08T04:29:24.330Z,9.62
2018-07-08T04:30:24.629Z,9.57
2018-07-08T04:31:24.289Z,9.56
2018-07-08T04:32:24.279Z,9.66
2018-07-08T04:33:24.300Z,9.59
2018-07-08T04:34:24.272Z,9.58
2018-07-08T04:35:24.282Z,9.6
2018-07-08T04:36:24.286Z,9.66
2018-07-08T04:37:24.272Z,9.63
2018-07-08T04:38:24.288Z,9.61
2018-07-08T04:39:24.312Z,9.63
2018-07-08T04:40:24.302Z,9.68
2018-07-08T04:41:24.445Z,9.69
2018-07-08T04:42:24.307Z,9.71
2018-07-08T04:43:24.328Z,9.66
2018-07-08T04:44:24.308Z,9.7
2018-07-08T04:45:24.274Z,9.67
2018-07-08T04:46:24.350Z,9.66
2018-07-08T04:47:24.285Z,9.72
2018-07-08T04:48:24.285Z,9.72
2018-07-08T04:49:24.347Z,9.7
2018-07-08T04:50:24.287Z,9.69
2018-07-08T04:51:24.282Z,9.71
2018-07-08T04:52:24.272Z,9.65
2018-07-08T04:53:24.445Z,9.67
2018-07-08T04:54:24.433Z,9.68
2018-07-08T04:55:24.278Z,9.69
2018-07-08T04:56:24.343Z,9.72
2018-07-08T04:57:24.317Z,9.74
2018-07-08T04:58:24.286Z,9.74
2018-07-08T04:59:24.366Z,9.76
2018-07-08T05:00:24.386Z,9.73
2018-07-08T05:01:24.361Z,9.79
2018-07-08T05:02:24.319Z,9.73
2018-07-08T05:03:24.316Z,9.73
2018-07-08T05:04:24.470Z,9.74
2018-07-08T05:05:24.303Z,9.69
2018-07-08T05:06:24.680Z,9.72
2018-07-08T05:07:24.303Z,9.71
2018-07-08T05:08:24.271Z,9.73
2018-07-08T05:09:24.270Z,9.61
2018-07-08T05:10:24.437Z,9.63
2018-07-08T05:11:24.280Z,9.67
2018-07-08T05:12:24.266Z,9.67
2018-07-08T05:13:24.283Z,9.66
2018-07-08T05:14:24.305Z,9.66
2018-07-08T05:15:24.301Z,9.66
2018-07-08T05:16:24.345Z,9.67
2018-07-08T05:17:24.312Z,9.64
2018-07-08T05:18:24.298Z,9.65
2018-07-08T05:19:24.356Z,9.69
2018-07-08T05:20:24.655Z,9.64
2018-07-08T05:21:24.359Z,9.64
2018-07-08T05:22:24.274Z,9.66
2018-07-08T05:23:24.324Z,9.67
2018-07-08T05:24:24.288Z,9.68
2018-07-08T05:25:24.568Z,9.65
2018-07-08T05:26:24.316Z,9.7
2018-07-08T05:27:24.291Z,9.73
2018-07-08T05:28:24.228Z,9.68
2018-07-08T05:29:24.294Z,9.71
2018-07-08T05:30:24.292Z,9.68
2018-07-08T05:31:24.321Z,9.6
2018-07-08T05:32:25.080Z,9.63
2018-07-08T05:33:24.377Z,9.72
2018-07-08T05:34:24.283Z,9.65
2018-07-08T05:35:24.505Z,9.61
2018-07-08T05:36:24.260Z,9.64
2018-07-08T05:37:24.288Z,9.58
2018-07-08T05:38:24.239Z,9.63
2018-07-08T05:39:24.290Z,9.59
2018-07-08T05:40:24.286Z,9.63
2018-07-08T05:41:24.307Z,9.69
2018-07-08T05:42:24.279Z,9.71
2018-07-08T05:43:24.244Z,9.63
2018-07-08T05:44:24.289Z,9.64
2018-07-08T05:45:24.341Z,9.65
2018-07-08T05:46:24.275Z,9.65
2018-07-08T05:47:24.285Z,9.62
2018-07-08T05:48:24.319Z,9.63
2018-07-08T05:49:24.256Z,9.7
2018-07-08T05:50:25.141Z,9.69
2018-07-08T05:51:24.443Z,9.72
2018-07-08T05:52:24.251Z,9.64
2018-07-08T05:53:24.265Z,9.65
2018-07-08T05:54:24.268Z,9.69
2018-07-08T05:55:24.298Z,9.66
2018-07-08T05:56:24.238Z,9.7
2018-07-08T05:57:24.266Z,9.73
2018-07-08T05:58:24.273Z,9.69
2018-07-08T05:59:24.302Z,9.7
2018-07-08T06:00:24.256Z,9.69
2018-07-08T06:01:24.413Z,9.71
2018-07-08T06:02:24.264Z,9.68
2018-07-08T06:03:24.263Z,9.67
2018-07-08T06:04:24.292Z,9.69
2018-07-08T06:05:24.293Z,9.68
2018-07-08T06:06:24.274Z,9.58
2018-07-08T06:07:24.255Z,9.62
2018-07-08T06:08:24.368Z,9.63
2018-07-08T06:09:24.393Z,9.6
2018-07-08T06:10:24.671Z,9.63
2018-07-08T06:11:24.267Z,9.66
2018-07-08T06:12:24.262Z,9.6
2018-07-08T06:13:24.296Z,9.57
2018-07-08T06:14:24.251Z,9.62
2018-07-08T06:15:24.702Z,9.62
2018-07-08T06:16:24.354Z,9.64
2018-07-08T06:17:24.254Z,9.63
2018-07-08T06:18:24.257Z,9.68
2018-07-08T06:19:24.272Z,9.7
2018-07-08T06:20:24.355Z,9.57
2018-07-08T06:21:24.245Z,9.51
2018-07-08T06:22:24.430Z,9.53
2018-07-08T06:23:24.419Z,9.56
2018-07-08T06:24:24.253Z,9.57
2018-07-08T06:25:24.229Z,9.49
2018-07-08T06:26:24.343Z,9.5
2018-07-08T06:27:24.246Z,9.45
2018-07-08T06:28:24.267Z,9.41
2018-07-08T06:29:24.341Z,9.51
2018-07-08T06:30:24.254Z,9.42
2018-07-08T06:31:24.268Z,9.39
2018-07-08T06:32:24.258Z,9.43
2018-07-08T06:33:24.264Z,9.54
2018-07-08T06:34:24.268Z,9.39
2018-07-08T06:35:24.426Z,9.41
2018-07-08T06:36:24.640Z,9.53
2018-07-08T06:37:24.317Z,9.37
2018-07-08T06:38:24.244Z,9.51
2018-07-08T06:39:24.280Z,9.47
2018-07-08T06:40:24.273Z,9.44
2018-07-08T06:41:24.236Z,9.41
2018-07-08T06:42:24.249Z,9.31
2018-07-08T06:43:24.322Z,9.34
2018-07-08T06:44:24.267Z,9.36
2018-07-08T06:45:24.250Z,9.42
2018-07-08T06:46:24.494Z,9.35
2018-07-08T06:47:24.260Z,9.43
2018-07-08T06:48:24.256Z,9.41
2018-07-08T06:49:24.214Z,9.38
2018-07-08T06:50:24.359Z,9.33
2018-07-08T06:51:24.258Z,9.41
2018-07-08T06:52:24.256Z,9.34
2018-07-08T06:53:24.287Z,9.46
2018-07-08T06:54:24.252Z,9.52
2018-07-08T06:55:24.239Z,9.43
2018-07-08T06:56:24.246Z,9.33
2018-07-08T06:57:24.262Z,9.35
2018-07-08T06:58:24.234Z,9.42
2018-07-08T06:59:24.228Z,9.43
2018-07-08T07:00:24.238Z,9.39
2018-07-08T07:01:24.249Z,9.33
2018-07-08T07:02:24.238Z,9.33
2018-07-08T07:03:24.218Z,9.39
2018-07-08T07:04:24.314Z,9.38
2018-07-08T07:05:24.259Z,9.36
2018-07-08T07:06:24.568Z,9.46
2018-07-08T07:07:24.233Z,9.51
2018-07-08T07:08:24.258Z,9.5
2018-07-08T07:09:24.226Z,9.51
2018-07-08T07:10:24.256Z,9.49
2018-07-08T07:11:24.321Z,9.45
2018-07-08T07:12:24.227Z,9.47
2018-07-08T07:13:24.232Z,9.38
2018-07-08T07:14:24.247Z,9.31
2018-07-08T07:15:24.246Z,9.49
2018-07-08T07:16:24.536Z,9.13
2018-07-08T07:17:24.578Z,9.17
2018-07-08T07:18:24.267Z,9.21
2018-07-08T07:19:24.231Z,9.17
2018-07-08T07:20:24.268Z,9.15
2018-07-08T07:21:24.247Z,9.07
2018-07-08T07:22:24.287Z,8.95
2018-07-08T07:23:24.307Z,9.03
2018-07-08T07:24:24.313Z,9.06
2018-07-08T07:25:24.245Z,9.03
2018-07-08T07:26:24.427Z,9.04
2018-07-08T07:27:24.217Z,9.2
2018-07-08T07:28:24.395Z,9.17
2018-07-08T07:29:24.285Z,9.23
2018-07-08T07:30:24.243Z,9.15
2018-07-08T07:31:24.272Z,9.13
2018-07-08T07:32:24.307Z,9.22
2018-07-08T07:33:24.243Z,9.21
2018-07-08T07:34:24.276Z,9.12
2018-07-08T07:35:24.242Z,9.09
2018-07-08T07:36:24.304Z,9.1
2018-07-08T07:37:24.972Z,9.16
2018-07-08T07:38:24.361Z,9.08
2018-07-08T07:39:24.449Z,9.09
2018-07-08T07:40:24.220Z,9.19
2018-07-08T07:41:24.369Z,9.14
2018-07-08T07:42:24.217Z,9.13
2018-07-08T07:43:24.502Z,9.07
2018-07-08T07:44:24.331Z,9.13
2018-07-08T07:45:24.609Z,9.16
2018-07-08T07:46:24.519Z,9.19
2018-07-08T07:47:24.463Z,9.22
2018-07-08T07:48:24.418Z,9.27
2018-07-08T07:49:24.529Z,9.29
2018-07-08T07:50:25.363Z,9.08
2018-07-08T07:51:24.212Z,8.94
2018-07-08T07:52:24.353Z,9.01
2018-07-08T07:53:24.266Z,9.01
2018-07-08T07:54:24.370Z,9.02
2018-07-08T07:55:24.371Z,9.16
2018-07-08T07:56:24.374Z,9.16
2018-07-08T07:57:24.414Z,9.14
2018-07-08T07:58:24.379Z,9.12
2018-07-08T07:59:24.394Z,9.02
2018-07-08T08:00:24.338Z,9.06
2018-07-08T08:01:24.314Z,9.01
2018-07-08T08:02:24.434Z,9.06
2018-07-08T08:03:24.444Z,9.08
2018-07-08T08:04:24.431Z,9.05
2018-07-08T08:05:24.234Z,8.93
2018-07-08T08:06:24.358Z,8.98
2018-07-08T08:07:24.277Z,8.98
2018-07-08T08:08:24.782Z,9.06
2018-07-08T08:09:24.358Z,9
2018-07-08T08:10:24.219Z,9.02
2018-07-08T08:11:24.277Z,8.81
2018-07-08T08:12:24.390Z,8.84
2018-07-08T08:13:24.381Z,8.89
2018-07-08T08:14:24.415Z,8.81
2018-07-08T08:15:24.414Z,8.77
2018-07-08T08:16:24.459Z,8.94
2018-07-08T08:17:24.315Z,8.91
2018-07-08T08:18:24.464Z,8.92
2018-07-08T08:19:24.331Z,8.58
2018-07-08T08:20:24.232Z,8.8
2018-07-08T08:21:24.214Z,8.86
2018-07-08T08:22:24.379Z,8.89
2018-07-08T08:23:24.374Z,8.89
2018-07-08T08:24:24.284Z,8.9
2018-07-08T08:25:24.327Z,8.89
2018-07-08T08:26:24.875Z,8.9
2018-07-08T08:27:24.320Z,8.88
2018-07-08T08:28:24.204Z,8.71
2018-07-08T08:29:24.248Z,8.61
2018-07-08T08:30:24.277Z,8.73
2018-07-08T08:31:24.353Z,8.72
2018-07-08T08:32:24.570Z,8.58
2018-07-08T08:33:24.272Z,8.46
2018-07-08T08:34:24.233Z,8.46
2018-07-08T08:35:24.350Z,8.32
2018-07-08T08:36:24.312Z,8.18
2018-07-08T08:37:24.456Z,8.1
2018-07-08T08:38:24.320Z,8.27
2018-07-08T08:39:24.479Z,7.99
2018-07-08T08:40:24.250Z,8.08
2018-07-08T08:41:24.229Z,8.27
2018-07-08T08:42:24.398Z,8.21
2018-07-08T08:43:24.201Z,8.26
2018-07-08T08:44:24.411Z,8.13
2018-07-08T08:45:24.229Z,8.26
2018-07-08T08:46:24.300Z,8.34
2018-07-08T08:47:24.236Z,8.2
2018-07-08T08:48:24.341Z,8.15
2018-07-08T08:49:24.208Z,8.18
2018-07-08T08:50:24.344Z,8.17
2018-07-08T08:51:24.236Z,8.36
2018-07-08T08:52:24.556Z,8.27
2018-07-08T08:53:24.230Z,8.32
2018-07-08T08:54:24.249Z,8.43
2018-07-08T08:55:24.656Z,8.52
2018-07-08T08:56:24.398Z,8.47
2018-07-08T08:57:24.637Z,8.51
2018-07-08T08:58:24.733Z,8.57
2018-07-08T08:59:24.381Z,8.59
2018-07-08T09:00:24.210Z,8.62
2018-07-08T09:01:24.234Z,8.53
2018-07-08T09:02:24.332Z,8.65
2018-07-08T09:03:24.305Z,8.53
2018-07-08T09:04:24.193Z,8.43
2018-07-08T09:05:24.244Z,8.56
2018-07-08T09:06:24.217Z,8.58
2018-07-08T09:07:24.206Z,8.68
2018-07-08T09:08:24.237Z,8.71
2018-07-08T09:09:24.270Z,8.87
2018-07-08T09:10:24.201Z,8.81
2018-07-08T09:11:24.223Z,8.75
2018-07-08T09:12:24.266Z,8.69
2018-07-08T09:13:24.181Z,8.73
2018-07-08T09:14:24.213Z,8.77
2018-07-08T09:15:24.228Z,8.82
2018-07-08T09:16:24.359Z,8.82
2018-07-08T09:17:24.670Z,8.75
2018-07-08T09:18:24.335Z,8.79
2018-07-08T09:19:24.210Z,8.79
2018-07-08T09:20:24.283Z,8.88
2018-07-08T09:21:24.244Z,8.74
2018-07-08T09:22:24.243Z,8.88
2018-07-08T09:23:24.296Z,8.92
2018-07-08T09:24:24.278Z,8.88
2018-07-08T09:25:24.185Z,8.91
2018-07-08T09:26:24.300Z,8.96
2018-07-08T09:27:24.221Z,8.96
2018-07-08T09:28:24.237Z,9.04
2018-07-08T09:29:25.030Z,9.04
2018-07-08T09:30:24.203Z,9.08
2018-07-08T09:31:24.190Z,9.09
2018-07-08T09:32:24.237Z,8.99
2018-07-08T09:33:24.246Z,9
2018-07-08T09:34:24.269Z,9.07
2018-07-08T09:35:24.209Z,8.95
2018-07-08T09:36:24.304Z,8.97
2018-07-08T09:37:24.190Z,8.97
2018-07-08T09:38:24.210Z,9.09
2018-07-08T09:39:24.952Z,9
2018-07-08T09:40:24.209Z,9.09
2018-07-08T09:41:24.439Z,9.02
2018-07-08T09:42:24.221Z,9.05
2018-07-08T09:43:24.213Z,9.13
2018-07-08T09:44:24.211Z,9.13
2018-07-08T09:45:24.202Z,8.96
2018-07-08T09:46:24.215Z,9.15
2018-07-08T09:47:24.221Z,8.96
2018-07-08T09:48:24.926Z,9
2018-07-08T09:49:24.199Z,9.01
2018-07-08T09:50:24.349Z,8.95
2018-07-08T09:51:24.181Z,8.98
2018-07-08T09:52:24.219Z,8.95
2018-07-08T09:53:24.800Z,8.95
2018-07-08T09:54:24.385Z,8.84
2018-07-08T09:55:24.661Z,8.92
2018-07-08T09:56:24.527Z,8.95
2018-07-08T09:57:24.198Z,8.83
2018-07-08T09:58:24.229Z,8.88
2018-07-08T09:59:24.204Z,8.95
2018-07-08T10:00:24.335Z,8.93
2018-07-08T10:01:24.201Z,8.85
2018-07-08T10:02:24.245Z,9
2018-07-08T10:03:24.187Z,9.04
2018-07-08T10:04:24.321Z,9.08
2018-07-08T10:05:24.174Z,9.07
2018-07-08T10:06:24.237Z,9.06
2018-07-08T10:07:24.187Z,9.07
2018-07-08T10:08:24.196Z,9.12
2018-07-08T10:09:24.189Z,9.09
2018-07-08T10:10:24.570Z,9.11
2018-07-08T10:11:24.551Z,9.16
2018-07-08T10:12:24.236Z,9.13
2018-07-08T10:13:24.174Z,9.17
2018-07-08T10:14:24.212Z,9.19
2018-07-08T10:15:24.175Z,9.2
2018-07-08T10:16:24.954Z,9.21
2018-07-08T10:17:24.575Z,9.22
2018-07-08T10:18:24.424Z,9.31
2018-07-08T10:19:25.235Z,9.3
2018-07-08T10:20:24.450Z,9.34
2018-07-08T10:21:24.506Z,9.29
2018-07-08T10:22:24.352Z,9.39
2018-07-08T10:23:24.315Z,9.36
2018-07-08T10:24:24.241Z,9.43
2018-07-08T10:25:25.156Z,9.39
2018-07-08T10:26:24.208Z,9.41
2018-07-08T10:27:24.237Z,9.49
2018-07-08T10:28:24.266Z,9.51
2018-07-08T10:29:24.237Z,9.45
2018-07-08T10:30:24.604Z,9.5
2018-07-08T10:31:24.277Z,9.45
2018-07-08T10:32:24.267Z,9.33
2018-07-08T10:33:24.178Z,9.46
2018-07-08T10:34:24.240Z,9.4
2018-07-08T10:35:24.255Z,9.44
2018-07-08T10:36:24.399Z,9.55
2018-07-08T10:37:24.276Z,9.49
2018-07-08T10:38:25.388Z,9.45
2018-07-08T10:39:24.261Z,9.54
2018-07-08T10:40:24.215Z,9.53
2018-07-08T10:41:24.174Z,9.41
2018-07-08T10:42:24.223Z,9.33
2018-07-08T10:43:25.943Z,9.32
2018-07-08T10:44:24.236Z,9.38
2018-07-08T10:45:24.236Z,9.35
2018-07-08T10:46:24.163Z,9.31
2018-07-08T10:47:24.147Z,9.4
2018-07-08T10:48:24.174Z,9.44
2018-07-08T10:49:24.178Z,9.41
2018-07-08T10:50:24.375Z,9.35
2018-07-08T10:51:24.590Z,9.36
2018-07-08T10:52:24.595Z,9.39
2018-07-08T10:53:24.192Z,9.36
2018-07-08T10:54:24.189Z,9.38
2018-07-08T10:55:24.743Z,9.54
2018-07-08T10:56:24.187Z,9.53
2018-07-08T10:57:24.154Z,9.4
2018-07-08T10:58:24.180Z,9.46
2018-07-08T10:59:24.317Z,9.44
2018-07-08T11:00:24.369Z,9.41
2018-07-08T11:01:24.168Z,9.28
2018-07-08T11:02:24.409Z,9.35
2018-07-08T11:03:24.190Z,9.24
2018-07-08T11:04:24.314Z,9.29
2018-07-08T11:05:24.175Z,9.44
2018-07-08T11:06:24.263Z,9.28
2018-07-08T11:07:24.157Z,9.23
2018-07-08T11:08:24.397Z,9.25
2018-07-08T11:09:24.248Z,9.32
2018-07-08T11:10:24.329Z,9.33
2018-07-08T11:11:24.241Z,9.36
2018-07-08T11:12:24.247Z,9.56
2018-07-08T11:13:24.221Z,9.61
2018-07-08T11:14:24.193Z,9.67
2018-07-08T11:15:24.697Z,9.42
2018-07-08T11:16:24.219Z,9.43
2018-07-08T11:17:24.181Z,9.27
2018-07-08T11:18:24.180Z,9.33
2018-07-08T11:19:24.162Z,9.31
2018-07-08T11:20:24.196Z,9.31
2018-07-08T11:21:24.202Z,9.29
2018-07-08T11:22:24.259Z,9.24
2018-07-08T11:23:24.407Z,9.37
2018-07-08T11:24:24.171Z,9.41
2018-07-08T11:25:24.320Z,9.47
2018-07-08T11:26:24.223Z,9.38
2018-07-08T11:27:24.333Z,9.39
2018-07-08T11:28:24.228Z,9.36
2018-07-08T11:29:24.231Z,9.32
2018-07-08T11:30:24.165Z,9.44
2018-07-08T11:31:24.214Z,9.17
2018-07-08T11:32:24.225Z,9.17
2018-07-08T11:33:24.181Z,8.92
2018-07-08T11:34:24.772Z,8.84
2018-07-08T11:35:25.251Z,8.92
2018-07-08T11:36:24.228Z,8.86
2018-07-08T11:37:24.212Z,8.78
2018-07-08T11:38:24.921Z,8.72
2018-07-08T11:39:24.145Z,8.73
2018-07-08T11:40:26.636Z,8.65
2018-07-08T11:41:24.177Z,8.61
2018-07-08T11:42:24.216Z,8.58
2018-07-08T11:43:25.183Z,8.63
2018-07-08T11:44:25.522Z,8.69
2018-07-08T11:45:24.165Z,8.84
2018-07-08T11:46:24.159Z,8.85
2018-07-08T11:47:24.544Z,8.88
2018-07-08T11:48:24.323Z,8.86
2018-07-08T11:49:24.267Z,8.93
2018-07-08T11:50:24.360Z,8.88
2018-07-08T11:51:24.171Z,8.71
2018-07-08T11:52:24.341Z,8.79
2018-07-08T11:53:24.217Z,8.82
2018-07-08T11:54:24.198Z,8.74
2018-07-08T11:55:24.834Z,8.71
2018-07-08T11:56:24.169Z,8.75
2018-07-08T11:57:24.160Z,8.76
2018-07-08T11:58:24.186Z,8.78
2018-07-08T11:59:24.176Z,8.78
2018-07-08T12:00:24.157Z,8.71
2018-07-08T12:01:24.164Z,8.47
2018-07-08T12:02:24.149Z,8.61
2018-07-08T12:03:24.173Z,8.43
2018-07-08T12:04:24.162Z,8.29
2018-07-08T12:05:24.191Z,8.42
2018-07-08T12:06:24.643Z,8.31
2018-07-08T12:07:24.200Z,8.49
2018-07-08T12:08:24.283Z,8.35
2018-07-08T12:09:24.156Z,8.49
2018-07-08T12:10:24.201Z,8.37
2018-07-08T12:11:24.190Z,8.04
2018-07-08T12:12:24.167Z,7.91
2018-07-08T12:13:24.321Z,7.9
2018-07-08T12:14:24.621Z,8.13
2018-07-08T12:15:24.223Z,7.92
2018-07-08T12:16:24.161Z,8
2018-07-08T12:17:24.318Z,8.08
2018-07-08T12:18:24.269Z,7.99
2018-07-08T12:19:24.343Z,7.93
2018-07-08T12:20:24.194Z,8.01
2018-07-08T12:21:24.429Z,8.04
2018-07-08T12:22:24.631Z,8.1
2018-07-08T12:23:24.304Z,7.96
2018-07-08T12:24:24.162Z,7.99
2018-07-08T12:25:24.379Z,8
2018-07-08T12:26:24.197Z,8.14
2018-07-08T12:27:24.162Z,8.38
2018-07-08T12:28:24.215Z,7.98
2018-07-08T12:29:24.180Z,7.96
2018-07-08T12:30:24.196Z,7.62
2018-07-08T12:31:24.239Z,7.7
2018-07-08T12:32:24.331Z,7.77
2018-07-08T12:33:24.206Z,7.77
2018-07-08T12:34:24.175Z,7.76
2018-07-08T12:35:24.170Z,7.81
2018-07-08T12:36:24.215Z,7.78
2018-07-08T12:37:24.234Z,7.82
2018-07-08T12:38:24.180Z,7.82
2018-07-08T12:39:24.151Z,7.67
2018-07-08T12:40:24.514Z,7.67
2018-07-08T12:41:24.300Z,7.49
2018-07-08T12:42:24.258Z,7.55
2018-07-08T12:43:24.174Z,7.54
2018-07-08T12:44:24.860Z,7.62
2018-07-08T12:45:24.323Z,7.64
2018-07-08T12:46:24.142Z,7.37
2018-07-08T12:47:24.376Z,7.55
2018-07-08T12:48:24.143Z,7.43
2018-07-08T12:49:24.351Z,7.33
2018-07-08T12:50:24.272Z,7.14
2018-07-08T12:51:25.321Z,7
2018-07-08T12:52:24.356Z,7.01
2018-07-08T12:53:24.177Z,7.04
2018-07-08T12:54:24.147Z,6.87
2018-07-08T12:55:24.185Z,6.74
2018-07-08T12:56:24.406Z,6.9
2018-07-08T12:57:24.177Z,6.98
2018-07-08T12:58:24.164Z,6.92
2018-07-08T12:59:24.255Z,6.94
2018-07-08T13:00:24.330Z,6.9
2018-07-08T13:01:24.283Z,6.92
2018-07-08T13:02:24.206Z,6.86
2018-07-08T13:03:24.226Z,6.93
2018-07-08T13:04:24.139Z,6.97
2018-07-08T13:05:24.357Z,7.06
2018-07-08T13:06:24.950Z,6.91
2018-07-08T13:07:24.175Z,6.73
2018-07-08T13:08:24.152Z,6.74
2018-07-08T13:09:24.231Z,6.69
2018-07-08T13:10:24.152Z,6.85
2018-07-08T13:11:24.170Z,6.63
2018-07-08T13:12:24.139Z,6.72
2018-07-08T13:13:24.164Z,6.59
2018-07-08T13:14:24.167Z,6.71
2018-07-08T13:15:24.142Z,6.73
2018-07-08T13:16:24.235Z,6.63
2018-07-08T13:17:24.173Z,6.69
2018-07-08T13:18:24.170Z,6.81
2018-07-08T13:19:24.645Z,6.81
2018-07-08T13:20:24.177Z,6.72
2018-07-08T13:21:24.137Z,6.65